Time;durP1;ratioP1;P1;durP2;ratioP2;P2;SDS_P1;SDS_P2;PMS_P1;PMS_P2;Temp;Humidity;BMP_temperature;BMP_pressure;BME280_temperature;BME280_humidity;BME280_pressure;Samples;Min_cycle;Max_cycle;Signal;HPM_P1;HPM_P2
2023/06/23 00:01:37;;;;;;;0.70;0.60;;;19.80;99.90;;;;;;5034757;28;20525;-84
2023/06/23 00:04:04;;;;;;;1.30;0.60;;;19.70;99.90;;;;;;5034807;28;20435;-85
2023/06/23 00:06:31;;;;;;;0.93;0.53;;;19.60;99.90;;;;;;5033482;28;20442;-85
2023/06/23 00:08:58;;;;;;;1.53;0.73;;;19.40;99.90;;;;;;5034607;28;20471;-87
2023/06/23 00:11:24;;;;;;;0.80;0.60;;;19.20;99.90;;;;;;5034805;28;20450;-87
2023/06/23 00:13:51;;;;;;;0.70;0.60;;;19.10;99.90;;;;;;5035061;28;20882;-88
2023/06/23 00:16:18;;;;;;;1.87;0.60;;;19.00;99.90;;;;;;5034629;28;20973;-88
2023/06/23 00:18:46;;;;;;;0.60;0.50;;;18.90;99.90;;;;;;5042023;28;20453;-86
2023/06/23 00:21:13;;;;;;;0.50;0.50;;;18.80;99.90;;;;;;5035159;28;20486;-87
2023/06/23 00:23:40;;;;;;;2.13;0.77;;;18.80;99.90;;;;;;5035445;28;20481;-87
2023/06/23 00:26:07;;;;;;;0.63;0.60;;;18.70;99.90;;;;;;5035079;28;20457;-88
2023/06/23 00:28:34;;;;;;;0.60;0.50;;;18.70;99.90;;;;;;5034158;28;20476;-88
2023/06/23 00:31:01;;;;;;;0.50;0.50;;;18.70;99.90;;;;;;5034666;28;20435;-89
2023/06/23 00:33:28;;;;;;;3.20;0.60;;;18.60;99.90;;;;;;5034708;28;20780;-88
2023/06/23 00:35:56;;;;;;;1.00;0.80;;;18.60;99.90;;;;;;5034620;28;20470;-87
2023/06/23 00:38:25;;;;;;;0.80;0.70;;;18.50;99.90;;;;;;5034229;28;20459;-87
2023/06/23 00:40:52;;;;;;;1.77;0.60;;;18.50;99.90;;;;;;5034381;28;20518;-87
2023/06/23 00:43:18;;;;;;;0.50;0.50;;;18.50;99.90;;;;;;5034316;28;20447;-87
2023/06/23 00:45:45;;;;;;;0.50;0.50;;;18.60;99.90;;;;;;5034190;28;20456;-88
2023/06/23 00:48:14;;;;;;;0.60;0.60;;;18.60;99.90;;;;;;5034193;28;20471;-87
2023/06/23 00:50:42;;;;;;;0.83;0.60;;;18.60;99.90;;;;;;5034269;28;20446;-88
2023/06/23 00:53:10;;;;;;;1.00;0.53;;;18.50;99.90;;;;;;5034272;28;20446;-87
2023/06/23 00:55:38;;;;;;;0.77;0.70;;;18.50;99.90;;;;;;5033771;28;20458;-87
2023/06/23 00:58:06;;;;;;;0.83;0.70;;;18.50;99.90;;;;;;5033913;28;20455;-87
2023/06/23 01:00:33;;;;;;;0.70;0.70;;;18.50;99.90;;;;;;5034016;28;20486;-87
2023/06/23 01:03:01;;;;;;;0.70;0.57;;;18.60;99.90;;;;;;5034051;28;20446;-87
2023/06/23 01:05:31;;;;;;;0.60;0.50;;;18.60;99.90;;;;;;5033923;28;20546;-87
2023/06/23 01:08:08;;;;;;;0.70;0.70;;;18.60;99.90;;;;;;5033472;28;21009;-87
2023/06/23 01:10:39;;;;;;;1.00;0.53;;;18.60;99.90;;;;;;5034054;28;20431;-88
2023/06/23 01:13:16;;;;;;;0.53;0.53;;;18.70;99.90;;;;;;5034117;28;20442;-88
2023/06/23 01:15:47;;;;;;;0.97;0.80;;;18.60;99.90;;;;;;5033839;28;20775;-88
2023/06/23 01:18:21;;;;;;;1.23;0.73;;;18.60;99.90;;;;;;5033951;28;20451;-87
2023/06/23 01:20:48;;;;;;;0.77;0.77;;;18.50;99.90;;;;;;5033862;28;20489;-87
2023/06/23 01:23:45;;;;;;;0.80;0.70;;;18.50;99.90;;;;;;5033884;28;20808;-88
2023/06/23 01:26:33;;;;;;;0.90;0.90;;;18.40;99.90;;;;;;5033915;28;20486;-88
2023/06/23 01:29:07;;;;;;;0.67;0.60;;;18.40;99.90;;;;;;5033265;28;20498;-86
2023/06/23 01:31:41;;;;;;;2.27;1.27;;;18.30;99.90;;;;;;5033829;28;20431;-88
2023/06/23 01:34:10;;;;;;;1.03;0.83;;;18.20;99.90;;;;;;5033642;28;20419;-88
2023/06/23 01:36:43;;;;;;;1.90;1.10;;;18.10;99.90;;;;;;5034068;28;20451;-87
2023/06/23 01:39:13;;;;;;;1.20;1.10;;;18.10;99.90;;;;;;5033576;28;20921;-88
2023/06/23 01:41:46;;;;;;;2.03;1.53;;;18.00;99.90;;;;;;5033782;28;20490;-88
2023/06/23 01:44:17;;;;;;;2.60;1.37;;;18.00;99.90;;;;;;5033552;28;20434;-87
2023/06/23 01:46:51;;;;;;;2.10;1.13;;;17.90;99.90;;;;;;5033646;28;20432;-88
2023/06/23 01:49:22;;;;;;;3.33;1.50;;;17.80;99.90;;;;;;5033399;28;20431;-87
2023/06/23 01:51:51;;;;;;;1.63;1.10;;;17.90;99.90;;;;;;5033886;28;20435;-87
2023/06/23 01:54:19;;;;;;;1.73;1.40;;;17.80;99.90;;;;;;5033554;28;20454;-88
2023/06/23 01:56:48;;;;;;;1.70;0.93;;;17.80;99.90;;;;;;5033011;28;20446;-86
2023/06/23 01:59:18;;;;;;;1.00;0.90;;;17.80;99.90;;;;;;5033413;28;20458;-86
2023/06/23 02:01:48;;;;;;;0.80;0.70;;;17.80;99.90;;;;;;5033410;28;20478;-87
2023/06/23 02:04:16;;;;;;;2.13;0.77;;;17.80;99.90;;;;;;5033407;28;20451;-87
2023/06/23 02:06:46;;;;;;;2.03;0.80;;;17.80;99.90;;;;;;5033275;28;20531;-87
2023/06/23 02:09:19;;;;;;;0.60;0.60;;;17.90;99.90;;;;;;5032979;28;20910;-86
2023/06/23 02:11:47;;;;;;;1.13;0.87;;;17.90;99.90;;;;;;5033875;28;20451;-87
2023/06/23 02:14:16;;;;;;;1.60;0.53;;;17.90;99.90;;;;;;5033301;28;20466;-85
2023/06/23 02:16:44;;;;;;;0.60;0.60;;;17.90;99.90;;;;;;5033207;28;20450;-85
2023/06/23 02:19:13;;;;;;;1.50;0.70;;;17.90;99.90;;;;;;5032931;28;20462;-85
2023/06/23 02:21:41;;;;;;;1.40;0.70;;;18.00;99.90;;;;;;5032772;28;20482;-85
2023/06/23 02:24:09;;;;;;;2.37;0.50;;;18.00;99.90;;;;;;5033113;28;20454;-86
2023/06/23 02:26:36;;;;;;;1.23;0.70;;;18.00;99.90;;;;;;5033104;28;20442;-85
2023/06/23 02:29:06;;;;;;;0.60;0.50;;;18.00;99.90;;;;;;5033415;28;20981;-85
2023/06/23 02:31:34;;;;;;;1.23;0.53;;;18.00;99.90;;;;;;5036273;28;20439;-86
2023/06/23 02:34:02;;;;;;;0.57;0.57;;;18.10;99.90;;;;;;5036813;28;20447;-86
2023/06/23 02:36:31;;;;;;;4.10;0.80;;;18.10;99.90;;;;;;5037021;28;20435;-87
2023/06/23 02:39:01;;;;;;;0.83;0.80;;;18.10;99.90;;;;;;5036348;28;20497;-86
2023/06/23 02:41:31;;;;;;;0.50;0.50;;;18.10;99.90;;;;;;5036022;28;21001;-85
2023/06/23 02:44:02;;;;;;;1.83;0.67;;;18.10;99.90;;;;;;5035933;28;20455;-86
2023/06/23 02:46:36;;;;;;;2.00;0.90;;;18.10;99.90;;;;;;5036090;28;20926;-86
2023/06/23 02:49:06;;;;;;;1.13;1.00;;;18.10;99.90;;;;;;5035786;28;20466;-86
2023/06/23 02:51:36;;;;;;;0.70;0.70;;;18.00;99.90;;;;;;5036434;28;20438;-85
2023/06/23 02:54:07;;;;;;;3.10;1.10;;;18.00;99.90;;;;;;5036244;28;20440;-86
2023/06/23 02:56:40;;;;;;;0.60;0.60;;;17.90;99.90;;;;;;5035989;28;20423;-86
2023/06/23 02:59:09;;;;;;;2.57;1.67;;;18.00;99.90;;;;;;5035985;28;20446;-86
2023/06/23 03:01:41;;;;;;;0.80;0.80;;;18.00;99.90;;;;;;5035885;28;20486;-86
2023/06/23 03:04:07;;;;;;;1.53;1.17;;;18.00;99.90;;;;;;5036434;28;20488;-86
2023/06/23 03:06:35;;;;;;;1.03;0.80;;;18.00;99.90;;;;;;5035957;28;20454;-86
2023/06/23 03:09:03;;;;;;;0.93;0.87;;;18.00;99.90;;;;;;5035880;28;20475;-86
2023/06/23 03:11:31;;;;;;;1.40;1.20;;;18.00;99.90;;;;;;5035749;28;20450;-86
2023/06/23 03:13:58;;;;;;;1.27;1.00;;;17.90;99.90;;;;;;5035691;28;20947;-85
2023/06/23 03:16:31;;;;;;;1.07;0.87;;;17.90;99.90;;;;;;5035295;28;20977;-85
2023/06/23 03:19:12;;;;;;;1.40;1.30;;;18.00;99.90;;;;;;5035624;28;20478;-86
2023/06/23 03:21:40;;;;;;;1.50;1.20;;;17.90;99.90;;;;;;5035564;28;20475;-86
2023/06/23 03:24:12;;;;;;;1.10;1.00;;;17.90;99.90;;;;;;5035448;28;20454;-85
2023/06/23 03:26:43;;;;;;;1.63;1.10;;;17.90;99.90;;;;;;5035584;28;20802;-85
2023/06/23 03:29:12;;;;;;;2.17;1.30;;;17.90;99.90;;;;;;5035425;28;20431;-86
2023/06/23 03:31:43;;;;;;;1.43;0.97;;;17.90;99.90;;;;;;5034889;28;20939;-86
2023/06/23 03:34:11;;;;;;;3.30;1.10;;;17.90;99.90;;;;;;5035259;28;20427;-86
2023/06/23 03:36:41;;;;;;;1.50;1.20;;;17.80;99.90;;;;;;5035285;28;20450;-86
2023/06/23 03:39:14;;;;;;;2.03;1.57;;;17.80;99.90;;;;;;5035317;28;20443;-86
2023/06/23 03:41:42;;;;;;;2.40;1.53;;;17.70;99.90;;;;;;5033960;28;20495;-85
2023/06/23 03:44:17;;;;;;;1.70;1.10;;;17.70;99.90;;;;;;5035178;28;20858;-86
2023/06/23 03:46:50;;;;;;;1.40;1.27;;;17.70;99.90;;;;;;5034941;28;20437;-86
2023/06/23 03:49:21;;;;;;;3.27;1.40;;;17.80;99.90;;;;;;5034842;28;20431;-85
2023/06/23 03:51:50;;;;;;;2.57;1.47;;;17.80;99.90;;;;;;5034872;28;20439;-86
2023/06/23 03:54:17;;;;;;;1.43;0.97;;;17.80;99.90;;;;;;5034981;28;20458;-86
2023/06/23 03:56:46;;;;;;;3.00;1.90;;;17.80;99.90;;;;;;5034693;28;20462;-86
2023/06/23 03:59:15;;;;;;;2.47;2.27;;;17.80;99.90;;;;;;5034636;28;20453;-86
2023/06/23 04:01:44;;;;;;;1.63;1.30;;;17.90;99.90;;;;;;5034698;28;20474;-86
2023/06/23 04:04:11;;;;;;;4.17;2.03;;;17.90;99.90;;;;;;5034384;28;20957;-85
2023/06/23 04:06:43;;;;;;;4.73;1.43;;;17.90;99.90;;;;;;5034349;28;20450;-85
2023/06/23 04:09:11;;;;;;;4.20;1.93;;;17.90;99.90;;;;;;5034669;28;20439;-85
2023/06/23 04:11:39;;;;;;;2.77;2.10;;;18.00;99.90;;;;;;5034517;28;20449;-85
2023/06/23 04:14:07;;;;;;;2.30;1.70;;;18.10;99.90;;;;;;5034103;28;20943;-85
2023/06/23 04:16:37;;;;;;;5.50;2.30;;;18.10;99.90;;;;;;5034353;28;20451;-85
2023/06/23 04:19:06;;;;;;;4.70;2.00;;;18.10;99.90;;;;;;5034248;28;20470;-85
2023/06/23 04:21:35;;;;;;;3.07;2.10;;;18.10;99.90;;;;;;5034092;28;20489;-85
2023/06/23 04:24:04;;;;;;;4.40;1.67;;;18.10;99.90;;;;;;5034181;28;20810;-85
2023/06/23 04:26:32;;;;;;;3.33;2.23;;;18.20;99.90;;;;;;5034056;28;20439;-85
2023/06/23 04:29:01;;;;;;;3.30;2.97;;;18.30;99.90;;;;;;5033603;28;20482;-85
2023/06/23 04:31:29;;;;;;;5.93;2.30;;;18.30;99.90;;;;;;5034579;28;20474;-85
2023/06/23 04:33:56;;;;;;;4.47;2.47;;;18.40;99.90;;;;;;5033666;28;20959;-84
2023/06/23 04:36:30;;;;;;;2.73;2.47;;;18.40;99.90;;;;;;5033693;28;20947;-84
2023/06/23 04:39:09;;;;;;;3.50;2.57;;;18.40;99.90;;;;;;5033835;28;20997;-84
2023/06/23 04:41:40;;;;;;;5.40;2.90;;;18.40;99.90;;;;;;5033492;28;20471;-84
2023/06/23 04:44:09;;;;;;;5.67;3.10;;;18.50;99.90;;;;;;5033817;28;20431;-85
2023/06/23 04:46:39;;;;;;;4.73;3.20;;;18.50;99.90;;;;;;5033573;28;20931;-84
2023/06/23 04:49:09;;;;;;;4.10;2.90;;;18.50;99.90;;;;;;5033816;28;20430;-84
2023/06/23 04:51:40;;;;;;;6.20;3.87;;;18.40;99.90;;;;;;5033049;28;20927;-84
2023/06/23 04:54:11;;;;;;;4.70;3.63;;;18.40;99.90;;;;;;5033716;28;20431;-85
2023/06/23 04:56:42;;;;;;;4.13;3.13;;;18.50;99.90;;;;;;5033605;28;20440;-84
2023/06/23 04:59:10;;;;;;;7.83;2.73;;;18.50;99.90;;;;;;5033626;28;20446;-85
2023/06/23 05:01:38;;;;;;;4.70;3.10;;;18.50;99.90;;;;;;5033499;28;20478;-84
2023/06/23 05:04:07;;;;;;;7.03;3.33;;;18.50;99.90;;;;;;5033544;28;20470;-85
2023/06/23 05:06:37;;;;;;;5.30;2.43;;;18.60;99.90;;;;;;5033496;28;20459;-84
2023/06/23 05:09:05;;;;;;;5.57;3.13;;;18.60;99.90;;;;;;5033583;28;20466;-84
2023/06/23 05:11:32;;;;;;;4.37;3.07;;;18.70;99.90;;;;;;5033474;28;20525;-84
2023/06/23 05:14:03;;;;;;;4.40;3.27;;;18.60;99.90;;;;;;5033459;28;20438;-84
2023/06/23 05:16:32;;;;;;;7.03;4.33;;;18.50;99.90;;;;;;5033480;28;20431;-84
2023/06/23 05:19:00;;;;;;;8.30;3.90;;;18.60;99.90;;;;;;5033175;28;21066;-84
2023/06/23 05:21:30;;;;;;;5.67;3.90;;;18.60;99.90;;;;;;5033399;28;20482;-84
2023/06/23 05:23:58;;;;;;;7.57;4.63;;;18.60;99.90;;;;;;5033098;28;20934;-85
2023/06/23 05:26:26;;;;;;;4.67;4.20;;;18.70;99.90;;;;;;5033437;28;20453;-84
2023/06/23 05:28:55;;;;;;;5.10;3.80;;;18.90;99.90;;;;;;5032771;28;20490;-84
2023/06/23 05:31:25;;;;;;;7.93;4.23;;;19.00;99.90;;;;;;5033294;28;20443;-84
2023/06/23 05:33:53;;;;;;;8.80;4.03;;;19.20;99.90;;;;;;5033367;28;20861;-84
2023/06/23 05:36:22;;;;;;;9.13;4.40;;;19.20;99.90;;;;;;5033176;28;20439;-84
2023/06/23 05:38:51;;;;;;;7.93;5.07;;;19.50;99.90;;;;;;5033040;28;20471;-84
2023/06/23 05:41:18;;;;;;;9.40;4.53;;;19.60;99.90;;;;;;5033060;28;20478;-84
2023/06/23 05:43:45;;;;;;;12.30;5.47;;;19.80;99.90;;;;;;5033109;28;20483;-84
2023/06/23 05:46:15;;;;;;;7.67;4.93;;;19.90;99.90;;;;;;5033040;28;20450;-84
2023/06/23 05:48:49;;;;;;;12.27;4.47;;;20.00;99.90;;;;;;5032932;28;20466;-83
2023/06/23 05:51:20;;;;;;;7.23;4.30;;;20.00;99.90;;;;;;5033121;28;20426;-83
2023/06/23 05:53:52;;;;;;;8.07;4.97;;;20.00;99.90;;;;;;5033014;28;20438;-84
2023/06/23 05:56:23;;;;;;;9.23;5.33;;;19.90;99.90;;;;;;5033029;28;20431;-84
2023/06/23 05:58:55;;;;;;;10.80;6.27;;;19.90;99.90;;;;;;5033194;28;20493;-84
2023/06/23 06:01:24;;;;;;;8.87;5.77;;;19.90;99.90;;;;;;5032942;28;20478;-83
2023/06/23 06:04:01;;;;;;;9.17;5.70;;;19.90;99.90;;;;;;5033269;28;20817;-83
2023/06/23 06:06:29;;;;;;;8.63;5.50;;;20.00;99.90;;;;;;5036792;28;20469;-84
2023/06/23 06:08:57;;;;;;;10.97;4.10;;;20.00;99.90;;;;;;5036629;28;20470;-83
2023/06/23 06:11:26;;;;;;;5.80;4.27;;;20.10;99.90;;;;;;5036593;28;20474;-83
2023/06/23 06:13:54;;;;;;;9.03;5.47;;;20.00;99.90;;;;;;5036608;28;20442;-83
2023/06/23 06:16:21;;;;;;;8.03;4.73;;;20.00;99.90;;;;;;5036681;28;20453;-84
2023/06/23 06:18:50;;;;;;;8.27;4.80;;;20.00;99.90;;;;;;5036533;28;20469;-83
2023/06/23 06:21:20;;;;;;;8.53;5.47;;;20.00;99.90;;;;;;5036089;28;20965;-83
2023/06/23 06:23:48;;;;;;;7.80;5.23;;;20.10;99.90;;;;;;5037306;28;20474;-83
2023/06/23 06:26:18;;;;;;;10.47;5.27;;;20.00;99.90;;;;;;5043367;28;20415;-83
2023/06/23 06:28:47;;;;;;;15.13;6.00;;;20.10;99.90;;;;;;5035853;28;20485;-84
2023/06/23 06:31:15;;;;;;;9.87;4.87;;;20.10;99.90;;;;;;5036049;28;20454;-84
2023/06/23 06:33:43;;;;;;;10.07;5.30;;;20.20;99.90;;;;;;5035908;28;20897;-83
2023/06/23 06:36:10;;;;;;;10.03;6.40;;;20.20;99.90;;;;;;5036237;28;20448;-83
2023/06/23 06:38:40;;;;;;;8.37;4.70;;;20.30;99.90;;;;;;5036012;28;20466;-83
2023/06/23 06:41:08;;;;;;;9.90;5.87;;;20.50;99.90;;;;;;5036069;28;20430;-83
2023/06/23 06:43:35;;;;;;;9.07;4.07;;;20.50;99.90;;;;;;5035878;28;20473;-85
2023/06/23 06:46:03;;;;;;;9.43;5.97;;;20.70;99.90;;;;;;5035940;28;20458;-84
2023/06/23 06:48:32;;;;;;;8.40;4.70;;;20.90;99.90;;;;;;5035799;28;20470;-84
2023/06/23 06:50:59;;;;;;;6.50;3.50;;;21.20;99.90;;;;;;5035917;28;20458;-84
2023/06/23 06:53:27;;;;;;;6.50;4.33;;;21.60;99.90;;;;;;5035807;28;20450;-84
2023/06/23 06:55:56;;;;;;;6.70;4.10;;;22.00;99.90;;;;;;5035815;28;20446;-84
2023/06/23 06:58:23;;;;;;;4.03;3.63;;;22.20;99.90;;;;;;5035716;28;20564;-84
2023/06/23 07:00:50;;;;;;;8.40;5.03;;;22.50;99.90;;;;;;5035681;28;20454;-84
2023/06/23 07:03:18;;;;;;;12.17;5.77;;;22.70;99.90;;;;;;5035662;28;20585;-84
2023/06/23 07:05:45;;;;;;;8.20;4.33;;;22.80;99.90;;;;;;5035633;28;20231;-84
2023/06/23 07:08:11;;;;;;;8.67;5.27;;;23.00;99.90;;;;;;5035521;28;20224;-83
2023/06/23 07:10:38;;;;;;;5.97;3.97;;;22.90;99.90;;;;;;5035571;28;20579;-84
2023/06/23 07:13:06;;;;;;;8.40;3.47;;;22.90;99.90;;;;;;5035679;28;20550;-84
2023/06/23 07:15:33;;;;;;;3.83;3.40;;;23.00;99.90;;;;;;5035187;28;20257;-84
2023/06/23 07:17:59;;;;;;;6.80;3.60;;;23.10;99.90;;;;;;5035056;28;20632;-84
2023/06/23 07:20:26;;;;;;;7.57;3.87;;;23.10;99.90;;;;;;5035391;28;20203;-84
2023/06/23 07:22:53;;;;;;;4.10;3.40;;;23.00;99.90;;;;;;5035222;28;20227;-84
2023/06/23 07:25:20;;;;;;;5.03;3.30;;;22.90;99.90;;;;;;5035252;28;20199;-84
2023/06/23 07:27:48;;;;;;;7.90;3.63;;;22.80;99.90;;;;;;5034904;28;20243;-83
2023/06/23 07:30:17;;;;;;;6.47;4.63;;;22.80;99.90;;;;;;5035222;28;20204;-84
2023/06/23 07:32:45;;;;;;;6.60;4.20;;;22.70;99.90;;;;;;5034794;28;20203;-84
2023/06/23 07:35:12;;;;;;;9.03;4.93;;;22.60;99.90;;;;;;5034866;28;20655;-84
2023/06/23 07:37:39;;;;;;;5.20;4.07;;;22.60;99.90;;;;;;5034716;28;20711;-84
2023/06/23 07:40:06;;;;;;;6.70;4.22;;;22.70;99.90;;;;;;5035037;28;20257;-84
2023/06/23 07:42:33;;;;;;;7.27;4.20;;;22.80;99.90;;;;;;5034834;28;20226;-84
2023/06/23 07:45:00;;;;;;;6.80;3.80;;;23.00;99.90;;;;;;5034910;28;20215;-84
2023/06/23 07:47:28;;;;;;;6.00;3.83;;;23.20;99.90;;;;;;5034834;28;20230;-85
2023/06/23 07:49:56;;;;;;;4.68;3.42;;;23.30;99.90;;;;;;5034771;28;20210;-84
2023/06/23 07:52:23;;;;;;;5.50;3.60;;;23.10;99.90;;;;;;5034760;28;20199;-84
2023/06/23 07:54:50;;;;;;;4.95;3.80;;;23.00;99.90;;;;;;5034834;28;20203;-84
2023/06/23 07:57:16;;;;;;;4.03;3.13;;;22.90;99.90;;;;;;5034607;28;20227;-85
2023/06/23 07:59:43;;;;;;;5.53;2.93;;;22.80;99.90;;;;;;5034722;28;20203;-85
2023/06/23 08:02:10;;;;;;;4.40;3.40;;;22.90;99.90;;;;;;5034481;28;20219;-85
2023/06/23 08:04:38;;;;;;;5.43;3.03;;;22.90;99.90;;;;;;5034340;28;20206;-85
2023/06/23 08:07:05;;;;;;;4.67;2.50;;;22.90;99.90;;;;;;5034423;28;20223;-85
2023/06/23 08:09:32;;;;;;;4.47;3.20;;;22.80;99.90;;;;;;5034480;28;20203;-85
2023/06/23 08:11:59;;;;;;;4.93;3.10;;;22.60;99.90;;;;;;5034363;28;20203;-85
2023/06/23 08:14:26;;;;;;;5.07;2.80;;;22.50;99.90;;;;;;5034327;28;20209;-85
2023/06/23 08:16:52;;;;;;;4.30;2.90;;;22.40;99.90;;;;;;5034234;28;20446;-85
2023/06/23 08:19:21;;;;;;;5.67;3.00;;;22.40;99.90;;;;;;5034301;28;20200;-85
2023/06/23 08:21:50;;;;;;;6.47;3.10;;;22.20;99.90;;;;;;5039389;28;20454;-85
2023/06/23 08:24:17;;;;;;;5.00;2.80;;;22.40;99.90;;;;;;5033968;28;20439;-85
2023/06/23 08:26:44;;;;;;;4.32;2.72;;;22.90;99.90;;;;;;5033367;28;20238;-83
2023/06/23 08:29:11;;;;;;;2.50;2.30;;;24.00;99.90;;;;;;5034002;28;20202;-85
2023/06/23 08:31:38;;;;;;;3.90;2.85;;;24.80;99.90;;;;;;5034072;28;20214;-85
2023/06/23 08:34:04;;;;;;;5.65;3.85;;;25.10;99.90;;;;;;5033683;28;20668;-85
2023/06/23 08:36:32;;;;;;;2.88;2.53;;;25.10;99.90;;;;;;5033946;28;20203;-85
2023/06/23 08:39:00;;;;;;;2.90;2.45;;;25.00;99.90;;;;;;5033894;28;20259;-85
2023/06/23 08:41:27;;;;;;;3.40;2.42;;;24.60;99.90;;;;;;5033885;28;20210;-84
2023/06/23 08:43:55;;;;;;;5.32;2.83;;;24.20;99.90;;;;;;5033736;28;20234;-85
2023/06/23 08:46:29;;;;;;;6.13;2.70;;;23.70;99.90;;;;;;5033785;28;20211;-85
2023/06/23 08:48:57;;;;;;;3.15;2.95;;;23.60;99.90;;;;;;5033681;28;20235;-85
2023/06/23 08:51:25;;;;;;;4.20;3.10;;;23.50;99.90;;;;;;5033752;28;20226;-85
2023/06/23 08:53:52;;;;;;;4.47;3.30;;;23.50;99.90;;;;;;5033413;28;20199;-85
2023/06/23 08:56:20;;;;;;;2.25;1.95;;;23.50;99.90;;;;;;5033684;28;20208;-85
2023/06/23 08:58:48;;;;;;;2.35;2.17;;;23.50;99.90;;;;;;5033528;28;20234;-85
2023/06/23 09:01:15;;;;;;;5.60;2.42;;;23.50;99.90;;;;;;5033641;28;20188;-84
2023/06/23 09:03:41;;;;;;;1.80;1.70;;;23.60;99.90;;;;;;5033446;28;20246;-86
2023/06/23 09:06:09;;;;;;;2.20;2.10;;;23.90;99.90;;;;;;5033252;28;20238;-85
2023/06/23 09:08:36;;;;;;;4.13;2.40;;;23.90;99.90;;;;;;5033462;28;20312;-85
2023/06/23 09:11:03;;;;;;;2.65;2.38;;;24.10;99.90;;;;;;5033184;28;20207;-85
2023/06/23 09:13:35;;;;;;;3.13;2.83;;;24.20;99.90;;;;;;5033231;28;20195;-85
2023/06/23 09:16:02;;;;;;;1.88;1.73;;;24.00;99.90;;;;;;5033104;28;20195;-85
2023/06/23 09:18:32;;;;;;;1.55;1.45;;;23.80;99.90;;;;;;5033260;28;20595;-84
2023/06/23 09:21:02;;;;;;;4.05;2.13;;;23.60;99.90;;;;;;5033380;28;20207;-85
2023/06/23 09:23:31;;;;;;;3.65;2.10;;;23.50;99.90;;;;;;5033386;28;20313;-85
2023/06/23 09:25:57;;;;;;;3.33;2.30;;;23.60;99.90;;;;;;5033367;28;20249;-85
2023/06/23 09:28:27;;;;;;;2.75;2.28;;;23.70;99.90;;;;;;5032744;28;20239;-85
2023/06/23 09:30:57;;;;;;;3.95;2.50;;;24.00;99.90;;;;;;5033283;28;20555;-85
2023/06/23 09:33:25;;;;;;;3.28;2.38;;;24.20;99.90;;;;;;5034076;28;20218;-84
2023/06/23 09:35:55;;;;;;;4.60;2.65;;;24.30;99.90;;;;;;5032894;28;20207;-85
2023/06/23 09:38:24;;;;;;;3.53;2.72;;;24.40;99.90;;;;;;5034308;28;20227;-85
2023/06/23 09:41:03;;;;;;;3.42;3.13;;;24.60;99.90;;;;;;5037272;28;20203;-86
2023/06/23 09:43:30;;;;;;;2.75;1.70;;;25.00;99.90;;;;;;5037196;28;20250;-85
2023/06/23 09:46:06;;;;;;;3.20;2.67;;;25.10;99.90;;;;;;5037131;28;20584;-85
2023/06/23 09:48:33;;;;;;;3.15;2.17;;;25.00;99.90;;;;;;5037083;28;20233;-85
2023/06/23 09:51:00;;;;;;;3.67;2.33;;;24.70;99.90;;;;;;5037112;28;20322;-85
2023/06/23 09:53:32;;;;;;;3.20;1.92;;;24.50;99.90;;;;;;5037065;28;20199;-85
2023/06/23 09:55:59;;;;;;;4.60;2.65;;;24.50;99.90;;;;;;5036987;28;20205;-85
2023/06/23 09:58:29;;;;;;;2.90;2.05;;;24.80;99.90;;;;;;5036643;28;20251;-85
2023/06/23 10:01:02;;;;;;;1.98;1.77;;;24.90;99.90;;;;;;5036849;28;20194;-85
2023/06/23 10:03:30;;;;;;;4.18;2.55;;;25.10;99.90;;;;;;5036843;28;20207;-85
2023/06/23 10:05:57;;;;;;;4.78;2.30;;;25.20;99.90;;;;;;5036840;28;20226;-86
2023/06/23 10:08:24;;;;;;;4.20;2.65;;;25.40;99.90;;;;;;5037337;28;20219;-85
2023/06/23 10:10:51;;;;;;;3.13;2.80;;;25.10;99.90;;;;;;5036946;28;20188;-84
2023/06/23 10:13:18;;;;;;;2.05;1.90;;;24.90;99.90;;;;;;5036655;28;20196;-84
2023/06/23 10:15:45;;;;;;;5.20;3.40;;;24.80;99.90;;;;;;5036520;28;20203;-85
2023/06/23 10:18:14;;;;;;;3.83;2.67;;;24.70;99.90;;;;;;5036550;28;20227;-85
2023/06/23 10:20:40;;;;;;;4.90;2.13;;;24.70;99.90;;;;;;5036562;28;20191;-84
2023/06/23 10:23:07;;;;;;;3.83;2.88;;;24.70;99.90;;;;;;5036128;28;20207;-85
2023/06/23 10:25:36;;;;;;;2.75;2.22;;;24.60;99.90;;;;;;5036394;28;20200;-84
2023/06/23 10:28:10;;;;;;;2.25;2.08;;;24.60;99.90;;;;;;5036112;28;20270;-84
2023/06/23 10:30:38;;;;;;;2.83;1.88;;;24.70;99.90;;;;;;5036352;28;20188;-85
2023/06/23 10:33:08;;;;;;;2.38;2.20;;;24.70;99.90;;;;;;5036251;28;20200;-84
2023/06/23 10:35:38;;;;;;;2.50;2.20;;;24.90;99.90;;;;;;5036332;28;20192;-84
2023/06/23 10:38:07;;;;;;;3.17;2.20;;;24.90;99.90;;;;;;5036107;28;20230;-85
2023/06/23 10:40:39;;;;;;;1.88;1.60;;;24.80;99.90;;;;;;5035808;28;20543;-86
2023/06/23 10:43:07;;;;;;;2.53;2.33;;;24.70;99.90;;;;;;5035834;28;20246;-84
2023/06/23 10:45:34;;;;;;;1.88;1.65;;;24.90;99.90;;;;;;5036111;28;20235;-84
2023/06/23 10:48:01;;;;;;;1.60;1.50;;;24.90;99.90;;;;;;5035959;28;20227;-85
2023/06/23 10:50:29;;;;;;;2.08;1.40;;;25.10;99.90;;;;;;5035358;28;20199;-85
2023/06/23 10:53:09;;;;;;;1.90;1.70;;;25.20;99.90;;;;;;5035905;28;20202;-84
2023/06/23 10:55:41;;;;;;;2.53;2.15;;;25.40;99.90;;;;;;5036073;28;20191;-85
2023/06/23 10:58:12;;;;;;;2.42;2.13;;;25.70;99.90;;;;;;5035840;28;20258;-86
2023/06/23 11:00:39;;;;;;;1.67;1.58;;;25.70;99.90;;;;;;5036189;28;20628;-87
2023/06/23 11:03:09;;;;;;;1.75;1.65;;;25.60;99.90;;;;;;5036299;28;20230;-87
2023/06/23 11:05:42;;;;;;;3.65;1.83;;;25.90;99.90;;;;;;5035748;28;20218;-87
2023/06/23 11:08:13;;;;;;;1.92;1.80;;;26.30;99.90;;;;;;5035799;28;20231;-88
2023/06/23 11:10:51;;;;;;;2.05;1.95;;;26.50;98.70;;;;;;5035905;28;20246;-86
2023/06/23 11:13:17;;;;;;;2.00;1.90;;;26.60;98.90;;;;;;5035772;28;20195;-86
2023/06/23 11:15:53;;;;;;;2.17;1.63;;;26.50;98.40;;;;;;5035594;28;20203;-86
2023/06/23 11:18:22;;;;;;;2.00;1.88;;;26.40;97.80;;;;;;5035701;28;20718;-87
2023/06/23 11:20:49;;;;;;;2.20;1.77;;;26.00;98.30;;;;;;5035480;28;20203;-84
2023/06/23 11:23:17;;;;;;;1.45;1.30;;;25.70;98.40;;;;;;5035454;28;20220;-86
2023/06/23 11:25:46;;;;;;;2.22;2.03;;;25.70;98.50;;;;;;5035398;28;20253;-86
2023/06/23 11:28:34;;;;;;;2.10;1.60;;;25.80;99.00;;;;;;5034814;28;20353;-86
2023/06/23 11:31:11;;;;;;;1.63;1.52;;;25.80;96.60;;;;;;5035321;28;20223;-86
2023/06/23 11:33:39;;;;;;;2.83;1.85;;;25.70;97.30;;;;;;5035117;28;20199;-87
2023/06/23 11:36:07;;;;;;;2.65;2.45;;;25.60;97.50;;;;;;5035307;28;20214;-86
2023/06/23 11:38:37;;;;;;;3.75;2.22;;;25.40;97.70;;;;;;5035096;28;20219;-87
2023/06/23 11:41:04;;;;;;;1.80;1.30;;;25.20;98.30;;;;;;5034753;28;20210;-86
2023/06/23 11:43:32;;;;;;;1.55;1.45;;;24.80;98.30;;;;;;5034876;28;20687;-86
2023/06/23 11:46:06;;;;;;;1.92;1.67;;;24.50;98.80;;;;;;5034687;28;20767;-86
2023/06/23 11:48:35;;;;;;;3.53;1.95;;;24.40;99.30;;;;;;5034743;28;20230;-86
2023/06/23 11:51:03;;;;;;;2.55;1.88;;;24.10;98.80;;;;;;5034857;28;20203;-86
2023/06/23 11:53:30;;;;;;;2.03;1.88;;;24.10;99.90;;;;;;5034860;28;20238;-86
2023/06/23 11:55:59;;;;;;;2.15;1.88;;;23.90;99.50;;;;;;5035065;28;20207;-86
2023/06/23 11:58:29;;;;;;;4.20;2.08;;;23.90;99.90;;;;;;5034463;28;20226;-86
2023/06/23 12:00:56;;;;;;;1.67;1.58;;;24.10;99.90;;;;;;5034403;28;20591;-86
2023/06/23 12:03:23;;;;;;;1.95;1.60;;;24.20;99.90;;;;;;5033840;28;20234;-86
2023/06/23 12:05:49;;;;;;;2.20;2.00;;;24.50;99.90;;;;;;5034309;28;20683;-86
2023/06/23 12:08:17;;;;;;;2.30;2.00;;;24.60;99.40;;;;;;5034474;28;20631;-86
2023/06/23 12:10:44;;;;;;;4.07;1.90;;;24.70;99.90;;;;;;5034571;28;20256;-86
2023/06/23 12:13:13;;;;;;;2.42;2.22;;;24.90;99.10;;;;;;5034739;28;20203;-87
2023/06/23 12:15:40;;;;;;;2.17;1.90;;;25.00;99.10;;;;;;5034408;28;20577;-86
2023/06/23 12:18:07;;;;;;;4.68;2.25;;;24.90;98.00;;;;;;5034226;28;20219;-87
2023/06/23 12:20:35;;;;;;;2.70;2.45;;;24.90;98.40;;;;;;5034586;28;20210;-85
2023/06/23 12:23:10;;;;;;;2.75;2.25;;;24.80;98.60;;;;;;5111976;27;20561;-85
2023/06/23 12:25:40;;;;;;;1.90;1.55;;;24.40;98.90;;;;;;5111324;28;20205;-85
2023/06/23 12:28:12;;;;;;;3.10;1.80;;;24.40;99.40;;;;;;5111216;28;20229;-86
2023/06/23 12:30:40;;;;;;;2.72;2.13;;;24.30;99.70;;;;;;5111266;28;20185;-85
2023/06/23 12:33:13;;;;;;;2.35;2.15;;;24.30;99.90;;;;;;5110861;28;20731;-85
2023/06/23 12:35:40;;;;;;;2.42;1.70;;;24.40;99.20;;;;;;5111161;28;20220;-85
2023/06/23 12:38:11;;;;;;;1.75;1.50;;;24.50;99.90;;;;;;5110999;28;20231;-84
2023/06/23 12:40:39;;;;;;;1.92;1.83;;;24.70;99.80;;;;;;5110838;28;20731;-85
2023/06/23 12:43:06;;;;;;;2.53;1.95;;;24.70;99.60;;;;;;5110909;28;20649;-85
2023/06/23 12:45:37;;;;;;;3.38;1.55;;;24.70;97.70;;;;;;5111318;28;20258;-85
2023/06/23 12:48:07;;;;;;;2.03;1.83;;;24.70;98.10;;;;;;5110504;28;20225;-85
2023/06/23 12:50:34;;;;;;;1.85;1.63;;;24.70;97.30;;;;;;5110525;28;20664;-86
2023/06/23 12:53:01;;;;;;;1.98;1.65;;;24.70;97.00;;;;;;5110801;28;20200;-85
2023/06/23 12:55:29;;;;;;;1.40;1.30;;;24.70;97.20;;;;;;5110727;28;20254;-85